sensor_id;sensor_type;location;lat;lon;timestamp;temperature;humidity
8067;DHT22;4076;48.076;9.118;2022-11-04T00:00:50;9.30;99.90
8067;DHT22;4076;48.076;9.118;2022-11-04T00:03:15;9.20;99.90
8067;DHT22;4076;48.076;9.118;2022-11-04T00:05:41;9.20;99.90
8067;DHT22;4076;48.076;9.118;2022-11-04T00:08:07;9.20;99.90
8067;DHT22;4076;48.076;9.118;2022-11-04T00:10:52;9.20;99.90
8067;DHT22;4076;48.076;9.118;2022-11-04T00:13:36;9.20;99.90
8067;DHT22;4076;48.076;9.118;2022-11-04T00:16:02;9.20;99.90
8067;DHT22;4076;48.076;9.118;2022-11-04T00:18:53;9.20;99.90
8067;DHT22;4076;48.076;9.118;2022-11-04T00:21:19;9.20;99.90
8067;DHT22;4076;48.076;9.118;2022-11-04T00:24:04;9.10;99.90
8067;DHT22;4076;48.076;9.118;2022-11-04T00:26:49;9.10;99.90
8067;DHT22;4076;48.076;9.118;2022-11-04T00:29:33;9.10;99.90
8067;DHT22;4076;48.076;9.118;2022-11-04T00:31:58;9.10;99.90
8067;DHT22;4076;48.076;9.118;2022-11-04T00:34:43;9.10;99.90
8067;DHT22;4076;48.076;9.118;2022-11-04T00:37:08;9.10;99.90
8067;DHT22;4076;48.076;9.118;2022-11-04T00:39:34;9.10;99.90
8067;DHT22;4076;48.076;9.118;2022-11-04T00:41:59;9.20;99.90
8067;DHT22;4076;48.076;9.118;2022-11-04T00:44:25;9.20;99.90
8067;DHT22;4076;48.076;9.118;2022-11-04T00:46:50;9.20;99.90
8067;DHT22;4076;48.076;9.118;2022-11-04T00:49:16;9.20;99.90
8067;DHT22;4076;48.076;9.118;2022-11-04T00:51:41;9.20;99.90
8067;DHT22;4076;48.076;9.118;2022-11-04T00:54:07;9.20;99.90
8067;DHT22;4076;48.076;9.118;2022-11-04T00:56:37;9.20;99.90
8067;DHT22;4076;48.076;9.118;2022-11-04T00:59:02;9.20;99.90
8067;DHT22;4076;48.076;9.118;2022-11-04T01:01:28;9.20;99.90
8067;DHT22;4076;48.076;9.118;2022-11-04T01:03:55;9.20;99.90
8067;DHT22;4076;48.076;9.118;2022-11-04T01:06:22;9.20;99.90
8067;DHT22;4076;48.076;9.118;2022-11-04T01:08:48;9.10;99.90
8067;DHT22;4076;48.076;9.118;2022-11-04T01:11:14;9.10;99.90
8067;DHT22;4076;48.076;9.118;2022-11-04T01:13:40;9.10;99.90
8067;DHT22;4076;48.076;9.118;2022-11-04T01:16:08;9.10;99.90
8067;DHT22;4076;48.076;9.118;2022-11-04T01:18:34;9.10;99.90
8067;DHT22;4076;48.076;9.118;2022-11-04T01:21:01;9.10;99.90
8067;DHT22;4076;48.076;9.118;2022-11-04T01:23:27;9.10;99.90
8067;DHT22;4076;48.076;9.118;2022-11-04T01:25:53;9.10;99.90
8067;DHT22;4076;48.076;9.118;2022-11-04T01:28:18;9.00;99.90
8067;DHT22;4076;48.076;9.118;2022-11-04T01:30:44;9.00;99.90
8067;DHT22;4076;48.076;9.118;2022-11-04T01:33:09;9.00;99.90
8067;DHT22;4076;48.076;9.118;2022-11-04T01:35:35;9.00;99.90
8067;DHT22;4076;48.076;9.118;2022-11-04T01:38:00;9.00;99.90
8067;DHT22;4076;48.076;9.118;2022-11-04T01:40:26;9.00;99.90
8067;DHT22;4076;48.076;9.118;2022-11-04T01:42:51;9.00;99.90
8067;DHT22;4076;48.076;9.118;2022-11-04T01:45:19;8.90;99.90
8067;DHT22;4076;48.076;9.118;2022-11-04T01:48:05;8.90;99.90
8067;DHT22;4076;48.076;9.118;2022-11-04T01:50:35;8.90;99.90
8067;DHT22;4076;48.076;9.118;2022-11-04T01:53:39;8.80;99.90
8067;DHT22;4076;48.076;9.118;2022-11-04T01:56:08;8.80;99.90
8067;DHT22;4076;48.076;9.118;2022-11-04T01:58:40;8.90;99.90
8067;DHT22;4076;48.076;9.118;2022-11-04T02:01:07;8.90;99.90
8067;DHT22;4076;48.076;9.118;2022-11-04T02:03:49;8.90;99.90
8067;DHT22;4076;48.076;9.118;2022-11-04T02:06:18;8.90;99.90
8067;DHT22;4076;48.076;9.118;2022-11-04T02:08:45;9.00;99.90
8067;DHT22;4076;48.076;9.118;2022-11-04T02:11:11;9.00;99.90
8067;DHT22;4076;48.076;9.118;2022-11-04T02:13:57;9.00;99.90
8067;DHT22;4076;48.076;9.118;2022-11-04T02:16:42;9.10;99.90
8067;DHT22;4076;48.076;9.118;2022-11-04T02:19:24;9.10;99.90
8067;DHT22;4076;48.076;9.118;2022-11-04T02:30:56;9.10;99.90
8067;DHT22;4076;48.076;9.118;2022-11-04T02:33:25;9.10;99.90
8067;DHT22;4076;48.076;9.118;2022-11-04T02:39:31;9.10;99.90
8067;DHT22;4076;48.076;9.118;2022-11-04T02:42:24;9.00;99.90
8067;DHT22;4076;48.076;9.118;2022-11-04T02:47:36;8.90;99.90
8067;DHT22;4076;48.076;9.118;2022-11-04T02:53:01;8.90;99.90
8067;DHT22;4076;48.076;9.118;2022-11-04T02:55:44;8.90;99.90
8067;DHT22;4076;48.076;9.118;2022-11-04T02:58:17;8.90;99.90
8067;DHT22;4076;48.076;9.118;2022-11-04T03:00:43;8.90;99.90
8067;DHT22;4076;48.076;9.118;2022-11-04T03:03:13;8.90;99.90
8067;DHT22;4076;48.076;9.118;2022-11-04T03:05:43;8.90;99.90
8067;DHT22;4076;48.076;9.118;2022-11-04T03:08:20;8.80;99.90
8067;DHT22;4076;48.076;9.118;2022-11-04T03:10:57;8.80;99.90
8067;DHT22;4076;48.076;9.118;2022-11-04T03:14:09;8.80;99.90
8067;DHT22;4076;48.076;9.118;2022-11-04T03:16:52;8.80;99.90
8067;DHT22;4076;48.076;9.118;2022-11-04T03:21:57;8.70;99.90
8067;DHT22;4076;48.076;9.118;2022-11-04T03:24:23;8.60;99.90
8067;DHT22;4076;48.076;9.118;2022-11-04T03:27:16;8.60;99.90
8067;DHT22;4076;48.076;9.118;2022-11-04T03:30:01;8.50;99.90
8067;DHT22;4076;48.076;9.118;2022-11-04T03:32:40;8.50;99.90
8067;DHT22;4076;48.076;9.118;2022-11-04T03:35:09;8.40;99.90
8067;DHT22;4076;48.076;9.118;2022-11-04T03:37:35;8.40;99.90
8067;DHT22;4076;48.076;9.118;2022-11-04T03:40:01;8.40;99.90
8067;DHT22;4076;48.076;9.118;2022-11-04T03:42:29;8.40;99.90
8067;DHT22;4076;48.076;9.118;2022-11-04T03:44:56;8.30;99.90
8067;DHT22;4076;48.076;9.118;2022-11-04T03:47:25;8.30;99.90
8067;DHT22;4076;48.076;9.118;2022-11-04T03:49:56;8.30;99.90
8067;DHT22;4076;48.076;9.118;2022-11-04T03:52:24;8.20;99.90
8067;DHT22;4076;48.076;9.118;2022-11-04T03:54:49;8.20;99.90
8067;DHT22;4076;48.076;9.118;2022-11-04T04:00:13;8.10;99.90
8067;DHT22;4076;48.076;9.118;2022-11-04T04:05:21;8.10;99.90
8067;DHT22;4076;48.076;9.118;2022-11-04T04:08:11;8.00;99.90
8067;DHT22;4076;48.076;9.118;2022-11-04T04:10:50;8.00;99.90
8067;DHT22;4076;48.076;9.118;2022-11-04T04:16:00;8.00;99.90
8067;DHT22;4076;48.076;9.118;2022-11-04T04:18:42;7.90;99.90
8067;DHT22;4076;48.076;9.118;2022-11-04T04:21:12;7.90;99.90
8067;DHT22;4076;48.076;9.118;2022-11-04T04:23:40;7.90;99.90
8067;DHT22;4076;48.076;9.118;2022-11-04T04:26:25;7.90;99.90
8067;DHT22;4076;48.076;9.118;2022-11-04T04:29:27;7.90;99.90
8067;DHT22;4076;48.076;9.118;2022-11-04T04:31:55;7.80;99.90
8067;DHT22;4076;48.076;9.118;2022-11-04T04:34:27;7.80;99.90
8067;DHT22;4076;48.076;9.118;2022-11-04T04:37:39;7.70;99.90
8067;DHT22;4076;48.076;9.118;2022-11-04T04:39:49;7.60;99.90
8067;DHT22;4076;48.076;9.118;2022-11-04T04:42:35;7.60;99.90
8067;DHT22;4076;48.076;9.118;2022-11-04T04:45:41;7.50;99.90
8067;DHT22;4076;48.076;9.118;2022-11-04T04:48:10;7.40;99.90
8067;DHT22;4076;48.076;9.118;2022-11-04T04:50:43;7.40;99.90
8067;DHT22;4076;48.076;9.118;2022-11-04T04:53:10;7.30;99.90
8067;DHT22;4076;48.076;9.118;2022-11-04T04:55:35;7.30;99.90
8067;DHT22;4076;48.076;9.118;2022-11-04T04:58:01;7.30;99.90
8067;DHT22;4076;48.076;9.118;2022-11-04T05:00:27;7.30;99.90
8067;DHT22;4076;48.076;9.118;2022-11-04T05:02:53;7.30;99.90
8067;DHT22;4076;48.076;9.118;2022-11-04T05:05:19;7.30;99.90
8067;DHT22;4076;48.076;9.118;2022-11-04T05:07:45;7.30;99.90
8067;DHT22;4076;48.076;9.118;2022-11-04T05:10:12;7.30;99.90
8067;DHT22;4076;48.076;9.118;2022-11-04T05:12:39;7.30;99.90
8067;DHT22;4076;48.076;9.118;2022-11-04T05:15:24;7.20;99.90
8067;DHT22;4076;48.076;9.118;2022-11-04T05:18:00;7.20;99.90
8067;DHT22;4076;48.076;9.118;2022-11-04T05:20:26;7.20;99.90
8067;DHT22;4076;48.076;9.118;2022-11-04T05:22:53;7.20;99.90
8067;DHT22;4076;48.076;9.118;2022-11-04T05:25:19;7.20;99.90
8067;DHT22;4076;48.076;9.118;2022-11-04T05:27:44;7.20;99.90
8067;DHT22;4076;48.076;9.118;2022-11-04T05:30:10;7.30;99.90
8067;DHT22;4076;48.076;9.118;2022-11-04T05:32:35;7.30;99.90
8067;DHT22;4076;48.076;9.118;2022-11-04T05:35:01;7.30;99.90
8067;DHT22;4076;48.076;9.118;2022-11-04T05:37:27;7.30;99.90
8067;DHT22;4076;48.076;9.118;2022-11-04T05:39:52;7.30;99.90
8067;DHT22;4076;48.076;9.118;2022-11-04T05:42:18;7.30;99.90
8067;DHT22;4076;48.076;9.118;2022-11-04T05:44:44;7.30;99.90
8067;DHT22;4076;48.076;9.118;2022-11-04T05:47:09;7.30;99.90
8067;DHT22;4076;48.076;9.118;2022-11-04T05:49:35;7.30;99.90
8067;DHT22;4076;48.076;9.118;2022-11-04T05:52:00;7.20;99.90
8067;DHT22;4076;48.076;9.118;2022-11-04T05:54:26;7.20;99.90
8067;DHT22;4076;48.076;9.118;2022-11-04T05:56:52;7.10;99.90
8067;DHT22;4076;48.076;9.118;2022-11-04T05:59:17;7.10;99.90
8067;DHT22;4076;48.076;9.118;2022-11-04T06:01:43;7.10;99.90
8067;DHT22;4076;48.076;9.118;2022-11-04T06:04:14;7.10;99.90
8067;DHT22;4076;48.076;9.118;2022-11-04T06:06:40;7.10;99.90
8067;DHT22;4076;48.076;9.118;2022-11-04T06:09:06;7.10;99.90
8067;DHT22;4076;48.076;9.118;2022-11-04T06:11:33;7.10;99.90
8067;DHT22;4076;48.076;9.118;2022-11-04T06:13:59;7.10;99.90
8067;DHT22;4076;48.076;9.118;2022-11-04T06:16:25;7.10;99.90
8067;DHT22;4076;48.076;9.118;2022-11-04T06:18:51;7.00;99.90
8067;DHT22;4076;48.076;9.118;2022-11-04T06:21:21;7.10;99.90
8067;DHT22;4076;48.076;9.118;2022-11-04T06:23:49;7.10;99.90
8067;DHT22;4076;48.076;9.118;2022-11-04T06:26:15;7.10;99.90
8067;DHT22;4076;48.076;9.118;2022-11-04T06:28:41;7.20;99.90
8067;DHT22;4076;48.076;9.118;2022-11-04T06:31:08;7.20;99.90
8067;DHT22;4076;48.076;9.118;2022-11-04T06:33:34;7.30;99.90
8067;DHT22;4076;48.076;9.118;2022-11-04T06:36:01;7.40;99.90
8067;DHT22;4076;48.076;9.118;2022-11-04T06:38:30;7.50;99.90
8067;DHT22;4076;48.076;9.118;2022-11-04T06:40:55;7.50;99.90
8067;DHT22;4076;48.076;9.118;2022-11-04T06:43:21;7.50;99.90
8067;DHT22;4076;48.076;9.118;2022-11-04T06:45:57;7.60;99.90
8067;DHT22;4076;48.076;9.118;2022-11-04T06:48:24;7.60;99.90
8067;DHT22;4076;48.076;9.118;2022-11-04T06:50:50;7.60;99.90
8067;DHT22;4076;48.076;9.118;2022-11-04T06:53:15;7.60;99.90
8067;DHT22;4076;48.076;9.118;2022-11-04T06:55:41;7.60;99.90
8067;DHT22;4076;48.076;9.118;2022-11-04T06:58:07;7.70;99.90
8067;DHT22;4076;48.076;9.118;2022-11-04T07:00:33;7.70;99.90
8067;DHT22;4076;48.076;9.118;2022-11-04T07:02:59;7.70;99.90
8067;DHT22;4076;48.076;9.118;2022-11-04T07:05:24;7.70;99.90
8067;DHT22;4076;48.076;9.118;2022-11-04T07:07:50;7.70;99.90
8067;DHT22;4076;48.076;9.118;2022-11-04T07:10:15;7.80;99.90
8067;DHT22;4076;48.076;9.118;2022-11-04T07:12:42;7.80;99.90
8067;DHT22;4076;48.076;9.118;2022-11-04T07:15:08;7.90;99.90
8067;DHT22;4076;48.076;9.118;2022-11-04T07:17:33;7.90;99.90
8067;DHT22;4076;48.076;9.118;2022-11-04T07:19:59;8.00;99.90
8067;DHT22;4076;48.076;9.118;2022-11-04T07:22:24;8.00;99.90
8067;DHT22;4076;48.076;9.118;2022-11-04T07:24:50;8.00;99.90
8067;DHT22;4076;48.076;9.118;2022-11-04T07:27:16;8.10;99.90
8067;DHT22;4076;48.076;9.118;2022-11-04T07:29:41;8.10;99.90
8067;DHT22;4076;48.076;9.118;2022-11-04T07:32:07;8.20;99.90
8067;DHT22;4076;48.076;9.118;2022-11-04T07:34:32;8.20;99.90
8067;DHT22;4076;48.076;9.118;2022-11-04T07:36:58;8.30;99.90
8067;DHT22;4076;48.076;9.118;2022-11-04T07:39:23;8.40;99.90
8067;DHT22;4076;48.076;9.118;2022-11-04T07:41:49;8.50;99.90
8067;DHT22;4076;48.076;9.118;2022-11-04T07:44:15;8.60;99.90
8067;DHT22;4076;48.076;9.118;2022-11-04T07:46:40;8.70;99.90
8067;DHT22;4076;48.076;9.118;2022-11-04T07:49:06;8.90;99.90
8067;DHT22;4076;48.076;9.118;2022-11-04T07:51:32;8.90;99.90
8067;DHT22;4076;48.076;9.118;2022-11-04T07:53:58;9.00;99.90
8067;DHT22;4076;48.076;9.118;2022-11-04T07:56:24;9.10;99.90
8067;DHT22;4076;48.076;9.118;2022-11-04T07:58:50;9.10;99.90
8067;DHT22;4076;48.076;9.118;2022-11-04T08:01:21;9.20;99.90
8067;DHT22;4076;48.076;9.118;2022-11-04T08:03:48;9.20;99.90
8067;DHT22;4076;48.076;9.118;2022-11-04T08:06:15;9.30;99.90
8067;DHT22;4076;48.076;9.118;2022-11-04T08:08:41;9.40;99.90
8067;DHT22;4076;48.076;9.118;2022-11-04T08:11:16;9.50;99.90
8067;DHT22;4076;48.076;9.118;2022-11-04T08:13:42;9.50;99.90
8067;DHT22;4076;48.076;9.118;2022-11-04T08:16:13;9.50;99.90
8067;DHT22;4076;48.076;9.118;2022-11-04T08:18:41;9.50;99.90
8067;DHT22;4076;48.076;9.118;2022-11-04T08:21:07;9.40;99.90
8067;DHT22;4076;48.076;9.118;2022-11-04T08:23:33;9.40;99.90
8067;DHT22;4076;48.076;9.118;2022-11-04T08:25:59;9.40;99.90
8067;DHT22;4076;48.076;9.118;2022-11-04T08:28:26;9.40;99.90
8067;DHT22;4076;48.076;9.118;2022-11-04T08:30:58;9.40;99.90
8067;DHT22;4076;48.076;9.118;2022-11-04T08:33:25;9.30;99.90
8067;DHT22;4076;48.076;9.118;2022-11-04T08:35:51;9.20;99.90
8067;DHT22;4076;48.076;9.118;2022-11-04T08:38:17;9.20;99.90
8067;DHT22;4076;48.076;9.118;2022-11-04T08:40:42;9.20;99.90
8067;DHT22;4076;48.076;9.118;2022-11-04T08:43:08;9.20;99.90
8067;DHT22;4076;48.076;9.118;2022-11-04T08:45:39;9.20;99.90
8067;DHT22;4076;48.076;9.118;2022-11-04T08:48:05;9.20;99.90
8067;DHT22;4076;48.076;9.118;2022-11-04T08:50:31;9.20;99.90
8067;DHT22;4076;48.076;9.118;2022-11-04T08:52:57;9.20;99.90
8067;DHT22;4076;48.076;9.118;2022-11-04T08:55:23;9.30;99.90
8067;DHT22;4076;48.076;9.118;2022-11-04T08:57:48;9.40;99.90
8067;DHT22;4076;48.076;9.118;2022-11-04T09:00:15;9.40;99.90
8067;DHT22;4076;48.076;9.118;2022-11-04T09:02:41;9.30;99.90
8067;DHT22;4076;48.076;9.118;2022-11-04T09:05:07;9.30;99.90
8067;DHT22;4076;48.076;9.118;2022-11-04T09:07:32;9.30;99.90
8067;DHT22;4076;48.076;9.118;2022-11-04T09:09:59;9.30;99.90
8067;DHT22;4076;48.076;9.118;2022-11-04T09:12:26;9.40;99.90
8067;DHT22;4076;48.076;9.118;2022-11-04T09:14:52;9.40;99.90
8067;DHT22;4076;48.076;9.118;2022-11-04T09:17:17;9.50;99.90
8067;DHT22;4076;48.076;9.118;2022-11-04T09:19:43;9.60;99.90
8067;DHT22;4076;48.076;9.118;2022-11-04T09:22:09;9.70;99.90
8067;DHT22;4076;48.076;9.118;2022-11-04T09:24:34;9.70;99.90
8067;DHT22;4076;48.076;9.118;2022-11-04T09:27:00;9.80;99.90
8067;DHT22;4076;48.076;9.118;2022-11-04T09:29:25;9.80;99.90
8067;DHT22;4076;48.076;9.118;2022-11-04T09:31:51;10.00;99.90
8067;DHT22;4076;48.076;9.118;2022-11-04T09:34:16;10.10;99.90
8067;DHT22;4076;48.076;9.118;2022-11-04T09:36:43;10.40;99.90
8067;DHT22;4076;48.076;9.118;2022-11-04T09:39:09;10.60;99.90
8067;DHT22;4076;48.076;9.118;2022-11-04T09:44:26;11.10;99.90
8067;DHT22;4076;48.076;9.118;2022-11-04T09:46:57;11.20;99.90
8067;DHT22;4076;48.076;9.118;2022-11-04T09:49:27;11.20;99.90
8067;DHT22;4076;48.076;9.118;2022-11-04T09:51:55;11.20;99.90
8067;DHT22;4076;48.076;9.118;2022-11-04T09:54:24;11.30;99.90
8067;DHT22;4076;48.076;9.118;2022-11-04T09:56:52;11.50;99.90
8067;DHT22;4076;48.076;9.118;2022-11-04T09:59:24;11.60;99.90
8067;DHT22;4076;48.076;9.118;2022-11-04T10:01:55;11.70;99.90
8067;DHT22;4076;48.076;9.118;2022-11-04T10:15:12;12.00;99.90
8067;DHT22;4076;48.076;9.118;2022-11-04T10:21:03;12.30;99.90
8067;DHT22;4076;48.076;9.118;2022-11-04T10:23:43;12.40;99.90
8067;DHT22;4076;48.076;9.118;2022-11-04T10:26:17;12.20;99.90
8067;DHT22;4076;48.076;9.118;2022-11-04T10:28:53;12.20;99.90
8067;DHT22;4076;48.076;9.118;2022-11-04T10:31:19;12.20;99.90
8067;DHT22;4076;48.076;9.118;2022-11-04T10:33:54;12.40;99.90
8067;DHT22;4076;48.076;9.118;2022-11-04T10:36:22;12.50;99.90
8067;DHT22;4076;48.076;9.118;2022-11-04T10:38:53;12.60;99.90
8067;DHT22;4076;48.076;9.118;2022-11-04T10:43:49;12.80;99.90
8067;DHT22;4076;48.076;9.118;2022-11-04T10:46:25;12.90;99.90
8067;DHT22;4076;48.076;9.118;2022-11-04T10:49:03;13.10;99.90
8067;DHT22;4076;48.076;9.118;2022-11-04T10:51:30;13.30;99.90
8067;DHT22;4076;48.076;9.118;2022-11-04T10:53:56;13.30;99.90
8067;DHT22;4076;48.076;9.118;2022-11-04T10:56:41;13.20;97.10
8067;DHT22;4076;48.076;9.118;2022-11-04T11:01:49;12.50;94.70
8067;DHT22;4076;48.076;9.118;2022-11-04T11:06:50;12.30;97.30
8067;DHT22;4076;48.076;9.118;2022-11-04T11:09:23;12.30;97.70
8067;DHT22;4076;48.076;9.118;2022-11-04T11:11:55;12.20;96.40
8067;DHT22;4076;48.076;9.118;2022-11-04T11:16:54;12.30;99.20
8067;DHT22;4076;48.076;9.118;2022-11-04T11:19:22;12.50;99.40
8067;DHT22;4076;48.076;9.118;2022-11-04T11:21:54;12.60;98.20
8067;DHT22;4076;48.076;9.118;2022-11-04T11:24:22;12.80;97.70
8067;DHT22;4076;48.076;9.118;2022-11-04T11:26:51;13.00;98.00
8067;DHT22;4076;48.076;9.118;2022-11-04T11:29:32;13.10;97.80
8067;DHT22;4076;48.076;9.118;2022-11-04T11:32:05;13.30;97.40
8067;DHT22;4076;48.076;9.118;2022-11-04T11:34:43;13.50;96.20
8067;DHT22;4076;48.076;9.118;2022-11-04T11:37:24;13.40;92.90
8067;DHT22;4076;48.076;9.118;2022-11-04T11:39:50;13.30;91.50
8067;DHT22;4076;48.076;9.118;2022-11-04T11:42:16;13.20;92.80
8067;DHT22;4076;48.076;9.118;2022-11-04T11:44:53;13.30;93.00
8067;DHT22;4076;48.076;9.118;2022-11-04T11:47:33;13.60;92.70
8067;DHT22;4076;48.076;9.118;2022-11-04T11:50:18;14.10;92.30
8067;DHT22;4076;48.076;9.118;2022-11-04T11:52:46;14.30;88.00
8067;DHT22;4076;48.076;9.118;2022-11-04T11:55:35;14.10;87.60
8067;DHT22;4076;48.076;9.118;2022-11-04T11:58:27;14.10;87.50
8067;DHT22;4076;48.076;9.118;2022-11-04T12:01:39;14.10;86.10
8067;DHT22;4076;48.076;9.118;2022-11-04T12:04:07;14.00;83.60
8067;DHT22;4076;48.076;9.118;2022-11-04T12:12:15;13.80;82.50
8067;DHT22;4076;48.076;9.118;2022-11-04T12:20:43;14.00;84.00
8067;DHT22;4076;48.076;9.118;2022-11-04T12:23:34;13.90;81.90
8067;DHT22;4076;48.076;9.118;2022-11-04T12:26:28;13.80;81.60
8067;DHT22;4076;48.076;9.118;2022-11-04T12:29:11;13.70;78.80
8067;DHT22;4076;48.076;9.118;2022-11-04T12:40:52;12.80;82.50
8067;DHT22;4076;48.076;9.118;2022-11-04T12:49:02;12.50;86.00
8067;DHT22;4076;48.076;9.118;2022-11-04T12:52:00;12.40;86.10
8067;DHT22;4076;48.076;9.118;2022-11-04T12:57:31;12.40;87.90
8067;DHT22;4076;48.076;9.118;2022-11-04T13:02:29;12.20;84.60
8067;DHT22;4076;48.076;9.118;2022-11-04T13:07:45;11.80;87.60
8067;DHT22;4076;48.076;9.118;2022-11-04T13:10:54;11.70;88.90
8067;DHT22;4076;48.076;9.118;2022-11-04T13:13:14;11.70;90.40
8067;DHT22;4076;48.076;9.118;2022-11-04T13:15:53;11.60;90.10
8067;DHT22;4076;48.076;9.118;2022-11-04T13:18:21;11.50;90.20
8067;DHT22;4076;48.076;9.118;2022-11-04T13:21:06;11.50;91.30
8067;DHT22;4076;48.076;9.118;2022-11-04T13:23:54;11.50;91.10
8067;DHT22;4076;48.076;9.118;2022-11-04T13:26:22;11.50;90.80
8067;DHT22;4076;48.076;9.118;2022-11-04T13:29:15;11.50;90.80
8067;DHT22;4076;48.076;9.118;2022-11-04T13:37:46;11.70;91.60
8067;DHT22;4076;48.076;9.118;2022-11-04T13:40:21;11.90;91.30
8067;DHT22;4076;48.076;9.118;2022-11-04T13:43:02;12.00;91.70
8067;DHT22;4076;48.076;9.118;2022-11-04T13:45:53;12.00;90.70
8067;DHT22;4076;48.076;9.118;2022-11-04T13:48:22;12.10;91.60
8067;DHT22;4076;48.076;9.118;2022-11-04T13:50:59;12.20;91.80
8067;DHT22;4076;48.076;9.118;2022-11-04T13:53:52;12.30;92.30
8067;DHT22;4076;48.076;9.118;2022-11-04T13:56:35;12.50;90.70
8067;DHT22;4076;48.076;9.118;2022-11-04T13:59:25;12.60;88.30
8067;DHT22;4076;48.076;9.118;2022-11-04T14:04:37;12.90;89.10
8067;DHT22;4076;48.076;9.118;2022-11-04T14:07:05;12.90;83.50
8067;DHT22;4076;48.076;9.118;2022-11-04T14:14:52;12.70;82.90
8067;DHT22;4076;48.076;9.118;2022-11-04T14:28:16;12.10;87.80
8067;DHT22;4076;48.076;9.118;2022-11-04T14:30:53;12.00;85.30
8067;DHT22;4076;48.076;9.118;2022-11-04T14:35:50;11.30;81.80
8067;DHT22;4076;48.076;9.118;2022-11-04T14:38:24;10.90;83.10
8067;DHT22;4076;48.076;9.118;2022-11-04T14:41:11;10.50;89.30
8067;DHT22;4076;48.076;9.118;2022-11-04T14:43:40;10.20;89.40
8067;DHT22;4076;48.076;9.118;2022-11-04T14:46:07;9.80;91.80
8067;DHT22;4076;48.076;9.118;2022-11-04T14:48:33;9.60;93.80
8067;DHT22;4076;48.076;9.118;2022-11-04T14:51:00;9.40;95.90
8067;DHT22;4076;48.076;9.118;2022-11-04T14:53:31;9.20;96.40
8067;DHT22;4076;48.076;9.118;2022-11-04T14:56:14;9.20;96.70
8067;DHT22;4076;48.076;9.118;2022-11-04T15:01:20;9.00;99.90
8067;DHT22;4076;48.076;9.118;2022-11-04T15:03:47;8.90;99.90
8067;DHT22;4076;48.076;9.118;2022-11-04T15:06:23;8.90;99.90
8067;DHT22;4076;48.076;9.118;2022-11-04T15:08:49;8.80;99.90
8067;DHT22;4076;48.076;9.118;2022-11-04T15:11:18;8.80;99.90
8067;DHT22;4076;48.076;9.118;2022-11-04T15:14:22;8.70;99.90
8067;DHT22;4076;48.076;9.118;2022-11-04T15:16:54;8.60;99.90
8067;DHT22;4076;48.076;9.118;2022-11-04T15:19:29;8.50;99.90
8067;DHT22;4076;48.076;9.118;2022-11-04T15:21:55;8.50;99.90
8067;DHT22;4076;48.076;9.118;2022-11-04T15:24:22;8.50;99.90
8067;DHT22;4076;48.076;9.118;2022-11-04T15:26:50;8.50;99.90
8067;DHT22;4076;48.076;9.118;2022-11-04T15:29:17;8.40;99.90
8067;DHT22;4076;48.076;9.118;2022-11-04T15:31:58;8.40;99.90
8067;DHT22;4076;48.076;9.118;2022-11-04T15:34:25;8.40;99.90
8067;DHT22;4076;48.076;9.118;2022-11-04T15:36:55;8.40;99.90
8067;DHT22;4076;48.076;9.118;2022-11-04T15:39:40;8.30;99.90
8067;DHT22;4076;48.076;9.118;2022-11-04T15:42:12;8.20;99.90
8067;DHT22;4076;48.076;9.118;2022-11-04T15:44:57;8.20;99.90
8067;DHT22;4076;48.076;9.118;2022-11-04T15:47:25;8.20;99.90
8067;DHT22;4076;48.076;9.118;2022-11-04T15:49:52;8.30;99.90
8067;DHT22;4076;48.076;9.118;2022-11-04T15:52:26;8.20;99.90
8067;DHT22;4076;48.076;9.118;2022-11-04T15:54:53;8.10;99.90
8067;DHT22;4076;48.076;9.118;2022-11-04T16:02:31;8.00;99.90
8067;DHT22;4076;48.076;9.118;2022-11-04T16:05:03;8.00;99.90
8067;DHT22;4076;48.076;9.118;2022-11-04T16:07:34;7.90;99.90
8067;DHT22;4076;48.076;9.118;2022-11-04T16:10:00;7.90;99.90
8067;DHT22;4076;48.076;9.118;2022-11-04T16:12:28;7.80;99.90
8067;DHT22;4076;48.076;9.118;2022-11-04T16:14:56;7.80;99.90
8067;DHT22;4076;48.076;9.118;2022-11-04T16:17:23;7.70;99.90
8067;DHT22;4076;48.076;9.118;2022-11-04T16:19:54;7.80;99.90
8067;DHT22;4076;48.076;9.118;2022-11-04T16:24:52;7.80;99.90
8067;DHT22;4076;48.076;9.118;2022-11-04T16:27:20;7.80;99.90
8067;DHT22;4076;48.076;9.118;2022-11-04T16:30:00;7.70;99.90
8067;DHT22;4076;48.076;9.118;2022-11-04T16:32:30;7.80;99.90
8067;DHT22;4076;48.076;9.118;2022-11-04T16:35:13;7.80;99.90
8067;DHT22;4076;48.076;9.118;2022-11-04T16:37:39;7.80;99.90
8067;DHT22;4076;48.076;9.118;2022-11-04T16:40:05;7.90;99.90
8067;DHT22;4076;48.076;9.118;2022-11-04T16:42:31;7.80;99.90
8067;DHT22;4076;48.076;9.118;2022-11-04T16:44:59;7.80;99.90
8067;DHT22;4076;48.076;9.118;2022-11-04T16:47:26;7.80;99.90
8067;DHT22;4076;48.076;9.118;2022-11-04T16:49:58;7.70;99.90
8067;DHT22;4076;48.076;9.118;2022-11-04T16:52:24;7.60;99.90
8067;DHT22;4076;48.076;9.118;2022-11-04T16:54:50;7.50;99.90
8067;DHT22;4076;48.076;9.118;2022-11-04T16:57:16;7.60;99.90
8067;DHT22;4076;48.076;9.118;2022-11-04T16:59:42;7.50;99.90
8067;DHT22;4076;48.076;9.118;2022-11-04T17:02:17;7.50;99.90
8067;DHT22;4076;48.076;9.118;2022-11-04T17:04:45;7.50;99.90
8067;DHT22;4076;48.076;9.118;2022-11-04T17:07:11;7.50;99.90
8067;DHT22;4076;48.076;9.118;2022-11-04T17:09:37;7.40;99.90
8067;DHT22;4076;48.076;9.118;2022-11-04T17:12:03;7.40;99.90
8067;DHT22;4076;48.076;9.118;2022-11-04T17:14:28;7.40;99.90
8067;DHT22;4076;48.076;9.118;2022-11-04T17:16:54;7.30;99.90
8067;DHT22;4076;48.076;9.118;2022-11-04T17:19:19;7.30;99.90
8067;DHT22;4076;48.076;9.118;2022-11-04T17:21:45;7.30;99.90
8067;DHT22;4076;48.076;9.118;2022-11-04T17:24:11;7.30;99.90
8067;DHT22;4076;48.076;9.118;2022-11-04T17:26:36;7.30;99.90
8067;DHT22;4076;48.076;9.118;2022-11-04T17:29:02;7.30;99.90
8067;DHT22;4076;48.076;9.118;2022-11-04T17:31:27;7.30;99.90
8067;DHT22;4076;48.076;9.118;2022-11-04T17:33:53;7.20;99.90
8067;DHT22;4076;48.076;9.118;2022-11-04T17:36:19;7.20;99.90
8067;DHT22;4076;48.076;9.118;2022-11-04T17:38:45;7.20;99.90
8067;DHT22;4076;48.076;9.118;2022-11-04T17:41:11;7.10;99.90
8067;DHT22;4076;48.076;9.118;2022-11-04T17:43:55;7.00;99.90
8067;DHT22;4076;48.076;9.118;2022-11-04T17:46:24;7.00;99.90
8067;DHT22;4076;48.076;9.118;2022-11-04T17:49:05;7.00;99.90
8067;DHT22;4076;48.076;9.118;2022-11-04T17:51:33;7.00;99.90
8067;DHT22;4076;48.076;9.118;2022-11-04T17:53:58;7.00;99.90
8067;DHT22;4076;48.076;9.118;2022-11-04T17:56:24;7.00;99.90
8067;DHT22;4076;48.076;9.118;2022-11-04T17:58:50;7.00;99.90
8067;DHT22;4076;48.076;9.118;2022-11-04T18:01:18;7.00;99.90
8067;DHT22;4076;48.076;9.118;2022-11-04T18:03:45;7.00;99.90
8067;DHT22;4076;48.076;9.118;2022-11-04T18:06:10;7.00;99.90
8067;DHT22;4076;48.076;9.118;2022-11-04T18:08:37;7.00;99.90
8067;DHT22;4076;48.076;9.118;2022-11-04T18:11:08;7.00;99.90
8067;DHT22;4076;48.076;9.118;2022-11-04T18:13:35;7.00;99.90
8067;DHT22;4076;48.076;9.118;2022-11-04T18:16:09;7.00;99.90
8067;DHT22;4076;48.076;9.118;2022-11-04T18:18:34;7.00;99.90
8067;DHT22;4076;48.076;9.118;2022-11-04T18:21:03;7.00;99.90
8067;DHT22;4076;48.076;9.118;2022-11-04T18:23:29;6.90;99.90
8067;DHT22;4076;48.076;9.118;2022-11-04T18:25:55;6.90;99.90
8067;DHT22;4076;48.076;9.118;2022-11-04T18:28:21;6.80;99.90
8067;DHT22;4076;48.076;9.118;2022-11-04T18:30:47;6.90;99.90
8067;DHT22;4076;48.076;9.118;2022-11-04T18:33:13;6.90;99.90
8067;DHT22;4076;48.076;9.118;2022-11-04T18:35:38;6.90;99.90
8067;DHT22;4076;48.076;9.118;2022-11-04T18:38:04;6.90;99.90
8067;DHT22;4076;48.076;9.118;2022-11-04T18:40:29;6.80;99.90
8067;DHT22;4076;48.076;9.118;2022-11-04T18:42:55;6.80;99.90
8067;DHT22;4076;48.076;9.118;2022-11-04T18:45:21;6.80;99.90